createdAt,value
2022-11-09T00:01:41.382Z,3.05
2022-11-09T00:04:08.885Z,2.80
2022-11-09T00:06:36.722Z,3.33
2022-11-09T00:09:07.751Z,2.70
2022-11-09T00:11:36.380Z,2.15
2022-11-09T00:14:03.891Z,1.70
2022-11-09T00:16:30.937Z,2.92
2022-11-09T00:18:59.061Z,2.70
2022-11-09T00:21:26.390Z,2.63
2022-11-09T00:23:53.836Z,3.78
2022-11-09T00:26:21.642Z,2.35
2022-11-09T00:28:49.576Z,2.30
2022-11-09T00:31:19.394Z,2.78
2022-11-09T00:33:55.511Z,4.72
2022-11-09T00:36:23.918Z,4.18
2022-11-09T00:38:56.070Z,3.47
2022-11-09T00:41:23.671Z,3.38
2022-11-09T00:43:51.087Z,2.00
2022-11-09T00:46:18.547Z,4.43
2022-11-09T00:48:46.270Z,2.63
2022-11-09T00:51:13.335Z,3.80
2022-11-09T00:53:42.650Z,3.00
2022-11-09T00:56:13.376Z,2.05
2022-11-09T00:58:41.532Z,4.47
2022-11-09T01:01:17.524Z,3.00
2022-11-09T01:03:45.841Z,3.08
2022-11-09T01:06:19.079Z,2.67
2022-11-09T01:08:47.048Z,7.88
2022-11-09T01:11:17.311Z,2.00
2022-11-09T01:13:44.791Z,3.40
2022-11-09T01:16:16.137Z,2.85
2022-11-09T01:18:43.619Z,5.00
2022-11-09T01:21:12.832Z,3.92
2022-11-09T01:23:40.708Z,6.82
2022-11-09T01:26:10.111Z,3.08
2022-11-09T01:28:37.519Z,2.93
2022-11-09T01:31:08.548Z,4.85
2022-11-09T01:33:36.564Z,3.60
2022-11-09T01:36:05.986Z,2.33
2022-11-09T01:38:33.250Z,3.40
2022-11-09T01:41:01.108Z,5.43
2022-11-09T01:43:28.181Z,2.40
2022-11-09T01:46:12.155Z,4.70
2022-11-09T01:48:41.512Z,3.30
2022-11-09T01:51:18.924Z,1.65
2022-11-09T01:53:49.640Z,2.53
2022-11-09T01:56:18.036Z,4.07
2022-11-09T01:58:58.916Z,2.97
2022-11-09T02:01:29.798Z,2.78
2022-11-09T02:04:09.871Z,4.95
2022-11-09T02:06:36.969Z,7.70
2022-11-09T02:09:23.682Z,3.90
2022-11-09T02:11:50.868Z,4.45
2022-11-09T02:14:20.032Z,5.38
2022-11-09T02:16:47.723Z,3.55
2022-11-09T02:19:15.301Z,3.78
2022-11-09T02:21:42.407Z,4.25
2022-11-09T02:24:09.537Z,2.90
2022-11-09T02:26:51.091Z,3.58
2022-11-09T02:29:26.344Z,3.05
2022-11-09T02:31:58.317Z,4.05
2022-11-09T02:34:25.660Z,3.72
2022-11-09T02:36:53.128Z,3.67
2022-11-09T02:39:24.840Z,5.10
2022-11-09T02:42:10.398Z,7.40
2022-11-09T02:44:45.467Z,5.72
2022-11-09T02:47:12.688Z,5.80
2022-11-09T02:49:40.357Z,3.08
2022-11-09T02:52:08.586Z,2.65
2022-11-09T02:54:35.936Z,2.17
2022-11-09T02:57:04.297Z,5.95
2022-11-09T02:59:32.702Z,3.20
2022-11-09T03:02:00.296Z,2.95
2022-11-09T03:04:30.093Z,3.63
2022-11-09T03:06:57.664Z,2.55
2022-11-09T03:09:25.362Z,3.20
2022-11-09T03:11:52.480Z,8.38
2022-11-09T03:14:20.511Z,2.40
2022-11-09T03:16:52.161Z,5.13
2022-11-09T03:19:19.737Z,3.72
2022-11-09T03:21:50.189Z,4.82
2022-11-09T03:24:21.566Z,2.67
2022-11-09T03:26:50.113Z,5.95
2022-11-09T03:29:17.129Z,3.45
2022-11-09T03:31:44.126Z,4.10
2022-11-09T03:34:11.111Z,4.43
2022-11-09T03:36:39.338Z,3.90
2022-11-09T03:39:06.431Z,5.85
2022-11-09T03:41:35.159Z,4.00
2022-11-09T03:44:02.272Z,2.47
2022-11-09T03:46:29.244Z,4.07
2022-11-09T03:48:56.243Z,8.50
2022-11-09T03:51:23.452Z,4.32
2022-11-09T03:53:50.705Z,4.53
2022-11-09T03:56:18.359Z,3.40
2022-11-09T03:58:45.324Z,2.60
2022-11-09T04:01:12.373Z,3.25
2022-11-09T04:03:39.359Z,2.67
2022-11-09T04:06:06.610Z,4.03
2022-11-09T04:08:33.610Z,4.82
2022-11-09T04:11:00.664Z,1.33
2022-11-09T04:13:27.729Z,5.40
2022-11-09T04:15:54.726Z,6.25
2022-11-09T04:18:21.730Z,3.65
2022-11-09T04:20:48.870Z,3.70
2022-11-09T04:23:16.019Z,3.63
2022-11-09T04:25:43.312Z,2.28
2022-11-09T04:28:18.831Z,4.78
2022-11-09T04:30:45.965Z,6.05
2022-11-09T04:33:12.996Z,2.53
2022-11-09T04:35:40.145Z,1.77
2022-11-09T04:38:10.347Z,2.88
2022-11-09T04:40:37.947Z,2.03
2022-11-09T04:43:08.266Z,1.30
2022-11-09T04:48:04.418Z,2.50
2022-11-09T04:50:31.958Z,1.90
2022-11-09T04:53:10.672Z,2.15
2022-11-09T04:55:38.444Z,5.63
2022-11-09T04:58:06.168Z,8.20
2022-11-09T05:00:33.579Z,3.40
2022-11-09T05:03:02.342Z,4.57
2022-11-09T05:05:29.734Z,2.83
2022-11-09T05:07:57.098Z,5.22
2022-11-09T05:10:24.168Z,2.40
2022-11-09T05:12:56.871Z,3.15
2022-11-09T05:15:23.855Z,3.45
2022-11-09T05:17:50.752Z,3.63
2022-11-09T05:20:17.974Z,4.57
2022-11-09T05:23:03.346Z,3.90
2022-11-09T05:25:30.337Z,2.97
2022-11-09T05:27:57.674Z,3.40
2022-11-09T05:30:25.256Z,3.55
2022-11-09T05:32:52.400Z,2.67
2022-11-09T05:35:19.656Z,2.38
2022-11-09T05:37:48.449Z,2.75
2022-11-09T05:40:17.889Z,2.30
2022-11-09T05:42:45.608Z,2.77
2022-11-09T05:45:40.140Z,1.88
2022-11-09T05:48:04.787Z,2.53
2022-11-09T05:50:31.803Z,2.57
2022-11-09T05:53:12.560Z,1.85
2022-11-09T05:55:39.782Z,3.08
2022-11-09T05:58:07.378Z,4.18
2022-11-09T06:00:34.855Z,2.35
2022-11-09T06:03:06.842Z,2.53
2022-11-09T06:05:35.412Z,2.47
2022-11-09T06:08:07.770Z,1.13
2022-11-09T06:10:34.783Z,3.58
2022-11-09T06:13:01.887Z,1.75
2022-11-09T06:15:29.129Z,2.97
2022-11-09T06:17:57.370Z,1.92
2022-11-09T06:20:26.243Z,8.40
2022-11-09T06:22:58.631Z,2.28
2022-11-09T06:25:28.923Z,2.85
2022-11-09T06:27:56.457Z,1.02
2022-11-09T06:30:23.528Z,5.45
2022-11-09T06:32:50.990Z,1.48
2022-11-09T06:35:17.960Z,1.70
2022-11-09T06:37:44.877Z,1.50
2022-11-09T06:40:12.796Z,1.08
2022-11-09T06:42:39.837Z,2.33
2022-11-09T06:45:07.347Z,2.03
2022-11-09T06:47:34.252Z,1.73
2022-11-09T06:50:01.224Z,1.25
2022-11-09T06:52:28.206Z,3.47
2022-11-09T06:54:55.140Z,2.10
2022-11-09T06:57:22.194Z,1.27
2022-11-09T06:59:49.188Z,2.20
2022-11-09T07:02:20.049Z,4.40
2022-11-09T07:04:47.055Z,2.08
2022-11-09T07:07:14.059Z,1.10
2022-11-09T07:09:41.135Z,1.17
2022-11-09T07:12:08.965Z,1.05
2022-11-09T07:14:36.125Z,0.98
2022-11-09T07:17:03.145Z,1.35
2022-11-09T07:19:30.544Z,1.90
2022-11-09T07:21:57.795Z,2.65
2022-11-09T07:24:24.743Z,0.90
2022-11-09T07:26:51.820Z,2.05
2022-11-09T07:29:18.853Z,6.15
2022-11-09T07:31:45.864Z,1.88
2022-11-09T07:34:12.860Z,3.10
2022-11-09T07:36:39.927Z,1.33
2022-11-09T07:39:06.880Z,1.10
2022-11-09T07:41:35.019Z,1.00
2022-11-09T07:44:02.273Z,0.90
2022-11-09T07:46:29.319Z,9.45
2022-11-09T07:48:56.260Z,1.42
2022-11-09T07:51:23.199Z,1.83
2022-11-09T07:53:50.202Z,1.90
2022-11-09T07:56:18.101Z,1.77
2022-11-09T07:58:45.137Z,1.00
2022-11-09T08:01:12.401Z,1.42
2022-11-09T08:03:39.598Z,0.57
2022-11-09T08:06:07.028Z,1.95
2022-11-09T08:08:34.052Z,0.90
2022-11-09T08:11:01.108Z,1.23
2022-11-09T08:13:28.060Z,0.80
2022-11-09T08:15:55.041Z,2.38
2022-11-09T08:18:23.045Z,0.73
2022-11-09T08:20:50.388Z,2.70
2022-11-09T08:23:20.859Z,1.77
2022-11-09T08:25:49.624Z,0.50
2022-11-09T08:28:16.779Z,1.60
2022-11-09T08:30:45.244Z,1.08
2022-11-09T08:33:13.119Z,0.47
2022-11-09T08:35:40.218Z,2.05
2022-11-09T08:38:07.172Z,0.70
2022-11-09T08:40:34.247Z,3.78
2022-11-09T08:43:03.614Z,0.60
2022-11-09T08:45:33.097Z,2.38
2022-11-09T08:48:00.802Z,2.28
2022-11-09T08:50:29.515Z,2.28
2022-11-09T08:52:57.050Z,0.57
2022-11-09T08:55:24.857Z,2.83
2022-11-09T08:57:59.715Z,0.40
2022-11-09T09:00:27.182Z,0.50
2022-11-09T09:02:54.255Z,0.68
2022-11-09T09:05:21.339Z,0.57
2022-11-09T09:07:48.332Z,0.82
2022-11-09T09:10:15.352Z,0.63
2022-11-09T09:12:42.679Z,3.03
2022-11-09T09:15:09.801Z,0.95
2022-11-09T09:17:37.215Z,0.95
2022-11-09T09:20:05.163Z,0.60
2022-11-09T09:22:33.468Z,0.70
2022-11-09T09:25:00.591Z,0.60
2022-11-09T09:27:29.461Z,2.33
2022-11-09T09:29:57.225Z,1.38
2022-11-09T09:32:24.845Z,0.85
2022-11-09T09:34:51.914Z,2.08
2022-11-09T09:37:19.307Z,0.60
2022-11-09T09:39:46.290Z,1.88
2022-11-09T09:42:19.628Z,1.80
2022-11-09T09:45:05.415Z,1.27
2022-11-09T09:48:04.626Z,2.45
2022-11-09T09:50:49.697Z,5.38
2022-11-09T09:53:43.602Z,1.00
2022-11-09T09:56:28.563Z,1.27
2022-11-09T09:59:06.296Z,2.92
2022-11-09T10:01:44.267Z,0.77
2022-11-09T10:04:23.222Z,1.60
2022-11-09T10:07:01.584Z,0.90
2022-11-09T10:09:49.816Z,2.58
2022-11-09T10:12:41.871Z,2.60
2022-11-09T10:15:20.799Z,1.67
2022-11-09T10:18:17.688Z,3.00
2022-11-09T10:20:59.955Z,5.22
2022-11-09T10:23:34.935Z,5.25
2022-11-09T10:26:18.446Z,1.85
2022-11-09T10:29:19.447Z,9.23
2022-11-09T10:31:42.742Z,1.88
2022-11-09T10:34:23.213Z,4.93
2022-11-09T10:36:56.775Z,1.40
2022-11-09T10:39:26.319Z,1.00
2022-11-09T10:42:12.334Z,2.75
2022-11-09T10:44:59.932Z,1.85
2022-11-09T10:47:50.974Z,2.95
2022-11-09T10:50:52.658Z,2.70
2022-11-09T10:53:38.164Z,10.35
2022-11-09T10:56:23.515Z,4.00
2022-11-09T10:59:46.846Z,3.58
2022-11-09T11:02:44.696Z,2.17
2022-11-09T11:05:32.110Z,2.25
2022-11-09T11:08:31.236Z,4.72
2022-11-09T11:11:38.242Z,2.03
2022-11-09T11:14:34.661Z,1.02
2022-11-09T11:17:29.200Z,5.18
2022-11-09T11:20:30.143Z,3.88
2022-11-09T11:23:17.754Z,2.65
2022-11-09T11:26:20.829Z,1.95
2022-11-09T11:29:24.734Z,2.15
2022-11-09T11:32:15.394Z,2.53
2022-11-09T11:35:01.988Z,8.68
2022-11-09T11:38:00.278Z,1.33
2022-11-09T11:41:01.377Z,2.67
2022-11-09T11:44:08.623Z,1.05
2022-11-09T11:47:08.515Z,1.83
2022-11-09T11:50:00.119Z,4.03
2022-11-09T11:53:09.191Z,2.08
2022-11-09T11:56:08.292Z,4.28
2022-11-09T11:59:24.151Z,4.18
2022-11-09T12:02:24.694Z,2.00
2022-11-09T12:05:29.495Z,4.53
2022-11-09T12:08:14.699Z,3.15
2022-11-09T12:11:10.316Z,0.80
2022-11-09T12:14:33.168Z,2.85
2022-11-09T12:17:52.206Z,2.50
2022-11-09T12:21:08.442Z,4.13
2022-11-09T12:24:08.736Z,2.78
2022-11-09T12:30:18.537Z,1.50
2022-11-09T12:33:10.813Z,4.28
2022-11-09T12:36:16.108Z,1.83
2022-11-09T12:39:12.909Z,2.03
2022-11-09T12:42:04.694Z,0.80
2022-11-09T12:45:15.090Z,5.18
2022-11-09T12:48:24.691Z,1.23
2022-11-09T12:51:10.372Z,1.10
2022-11-09T12:53:56.957Z,3.40
2022-11-09T12:56:59.385Z,3.35
2022-11-09T12:59:51.294Z,2.33
2022-11-09T13:02:51.384Z,1.23
2022-11-09T13:05:38.715Z,4.93
2022-11-09T13:08:32.145Z,1.52
2022-11-09T13:11:29.875Z,3.10
2022-11-09T13:14:28.969Z,0.68
2022-11-09T13:17:24.156Z,2.63
2022-11-09T13:20:54.113Z,2.42
2022-11-09T13:26:49.108Z,1.95
2022-11-09T13:29:40.670Z,1.98
2022-11-09T13:32:28.763Z,2.17
2022-11-09T13:35:42.332Z,2.90
2022-11-09T13:38:32.751Z,1.30
2022-11-09T13:41:30.805Z,2.15
2022-11-09T13:44:27.438Z,2.50
2022-11-09T13:47:34.627Z,1.80
2022-11-09T13:50:25.373Z,1.75
2022-11-09T13:53:48.147Z,3.50
2022-11-09T13:56:40.135Z,3.63
2022-11-09T13:59:32.170Z,5.35
2022-11-09T14:02:26.736Z,1.30
2022-11-09T14:05:33.417Z,0.88
2022-11-09T14:08:40.428Z,6.70
2022-11-09T14:11:44.246Z,2.15
2022-11-09T14:15:01.727Z,1.52
2022-11-09T14:18:14.113Z,4.03
2022-11-09T14:21:18.716Z,3.47
2022-11-09T14:24:19.042Z,1.60
2022-11-09T14:29:59.234Z,1.15
2022-11-09T14:32:50.023Z,2.47
2022-11-09T14:35:37.291Z,1.48
2022-11-09T14:38:27.718Z,1.80
2022-11-09T14:44:20.685Z,4.55
2022-11-09T14:47:27.623Z,1.85
2022-11-09T14:50:22.626Z,2.47
2022-11-09T14:53:08.709Z,3.15
2022-11-09T14:55:57.845Z,5.30
2022-11-09T14:58:44.644Z,3.78
2022-11-09T15:01:30.606Z,2.38
2022-11-09T15:04:21.871Z,2.78
2022-11-09T15:07:16.503Z,3.55
2022-11-09T15:10:19.542Z,6.25
2022-11-09T15:13:05.445Z,3.80
2022-11-09T15:15:53.258Z,4.18
2022-11-09T15:18:46.411Z,1.42
2022-11-09T15:21:35.682Z,3.35
2022-11-09T15:24:23.039Z,3.05
2022-11-09T15:27:35.670Z,2.25
2022-11-09T15:30:59.698Z,1.55
2022-11-09T15:33:49.881Z,2.08
2022-11-09T15:36:37.689Z,3.20
2022-11-09T15:39:25.771Z,4.20
2022-11-09T15:42:12.064Z,3.05
2022-11-09T15:44:59.629Z,3.72
2022-11-09T15:47:54.482Z,3.28
2022-11-09T15:50:40.679Z,5.65
2022-11-09T15:53:26.392Z,4.22
2022-11-09T15:56:18.789Z,3.10
2022-11-09T15:59:04.452Z,4.60
2022-11-09T16:01:51.198Z,7.05
2022-11-09T16:04:36.694Z,4.07
2022-11-09T16:07:22.355Z,13.48
2022-11-09T16:10:12.930Z,7.10
2022-11-09T16:12:59.420Z,9.55
2022-11-09T16:15:44.983Z,6.07
2022-11-09T16:18:30.960Z,7.22
2022-11-09T16:21:17.886Z,5.13
2022-11-09T16:24:03.079Z,2.15
2022-11-09T16:26:48.700Z,2.60
2022-11-09T16:29:34.486Z,4.28
2022-11-09T16:32:20.221Z,3.85
2022-11-09T16:38:12.544Z,2.95
2022-11-09T16:41:01.050Z,1.95
2022-11-09T16:43:50.227Z,2.30
2022-11-09T16:46:35.592Z,6.70
2022-11-09T16:49:21.282Z,4.72
2022-11-09T16:52:06.939Z,2.30
2022-11-09T16:54:53.152Z,3.88
2022-11-09T16:57:38.994Z,3.20
2022-11-09T17:00:33.730Z,3.13
2022-11-09T17:03:30.788Z,4.18
2022-11-09T17:06:16.186Z,5.28
2022-11-09T17:09:02.085Z,5.63
2022-11-09T17:11:47.897Z,1.92
2022-11-09T17:14:33.146Z,5.60
2022-11-09T17:17:22.605Z,3.58
2022-11-09T17:20:09.290Z,3.40
2022-11-09T17:22:54.852Z,4.65
2022-11-09T17:25:40.416Z,7.07
2022-11-09T17:28:27.396Z,3.78
2022-11-09T17:31:18.462Z,9.80
2022-11-09T17:34:03.680Z,6.13
2022-11-09T17:37:03.661Z,2.33
2022-11-09T17:39:50.653Z,5.20
2022-11-09T17:42:36.891Z,4.35
2022-11-09T17:45:22.162Z,4.13
2022-11-09T17:48:07.760Z,5.47
2022-11-09T17:50:53.829Z,1.55
2022-11-09T17:53:39.832Z,6.05
2022-11-09T17:56:26.187Z,3.13
2022-11-09T17:59:12.201Z,5.90
2022-11-09T18:01:57.443Z,5.88
2022-11-09T18:04:43.861Z,2.03
2022-11-09T18:07:31.417Z,16.95
2022-11-09T18:10:16.879Z,2.08
2022-11-09T18:13:02.844Z,3.45
2022-11-09T18:15:48.621Z,3.53
2022-11-09T18:18:34.880Z,4.15
2022-11-09T18:21:23.113Z,2.60
2022-11-09T18:24:08.985Z,6.07
2022-11-09T18:26:54.989Z,7.15
2022-11-09T18:29:41.538Z,5.88
2022-11-09T18:32:26.882Z,6.10
2022-11-09T18:35:12.505Z,3.85
2022-11-09T18:38:20.113Z,4.15
2022-11-09T18:41:27.132Z,3.15
2022-11-09T18:44:12.602Z,4.03
2022-11-09T18:47:03.794Z,4.65
2022-11-09T18:49:50.781Z,4.47
2022-11-09T18:52:36.935Z,2.63
2022-11-09T18:55:22.556Z,4.82
2022-11-09T18:58:08.118Z,7.90
2022-11-09T19:01:05.542Z,8.02
2022-11-09T19:03:57.754Z,7.13
2022-11-09T19:06:45.232Z,6.13
2022-11-09T19:09:38.584Z,8.35
2022-11-09T19:12:25.155Z,7.97
2022-11-09T19:15:10.649Z,5.20
2022-11-09T19:17:56.354Z,6.88
2022-11-09T19:20:41.886Z,8.15
2022-11-09T19:23:33.005Z,5.70
2022-11-09T19:26:22.067Z,4.68
2022-11-09T19:29:08.614Z,5.25
2022-11-09T19:31:55.042Z,6.78
2022-11-09T19:34:42.670Z,6.00
2022-11-09T19:37:28.697Z,4.03
2022-11-09T19:40:14.636Z,5.10
2022-11-09T19:43:00.473Z,2.80
2022-11-09T19:45:48.969Z,5.88
2022-11-09T19:48:35.341Z,8.32
2022-11-09T19:51:21.240Z,5.60
2022-11-09T19:54:07.571Z,6.15
2022-11-09T19:56:53.855Z,5.18
2022-11-09T19:59:39.378Z,7.85
2022-11-09T20:02:25.329Z,4.15
2022-11-09T20:05:10.881Z,14.63
2022-11-09T20:07:57.237Z,18.23
2022-11-09T20:10:43.004Z,14.75
2022-11-09T20:13:28.928Z,19.15
2022-11-09T20:16:15.226Z,26.50
2022-11-09T20:19:02.353Z,9.15
2022-11-09T20:21:49.273Z,10.63
2022-11-09T20:24:35.154Z,6.50
2022-11-09T20:27:21.190Z,5.43
2022-11-09T20:30:07.060Z,8.88
2022-11-09T20:32:53.027Z,3.85
2022-11-09T20:35:42.911Z,5.63
2022-11-09T20:38:32.336Z,7.15
2022-11-09T20:41:22.890Z,3.97
2022-11-09T20:44:10.634Z,5.18
2022-11-09T20:46:56.534Z,4.85
2022-11-09T20:49:41.953Z,5.35
2022-11-09T20:52:27.384Z,7.05
2022-11-09T20:55:13.808Z,6.43
2022-11-09T20:57:59.333Z,6.30
2022-11-09T21:00:44.710Z,4.72
2022-11-09T21:03:31.219Z,8.45
2022-11-09T21:06:17.187Z,8.18
2022-11-09T21:09:05.593Z,9.02
2022-11-09T21:12:09.829Z,9.57
2022-11-09T21:14:55.701Z,5.45
2022-11-09T21:17:41.290Z,5.63
2022-11-09T21:20:26.593Z,5.30
2022-11-09T21:23:12.270Z,8.63
2022-11-09T21:26:18.501Z,9.45
2022-11-09T21:29:23.047Z,5.75
2022-11-09T21:32:10.937Z,4.10
2022-11-09T21:34:56.531Z,4.38
2022-11-09T21:37:42.171Z,12.15
2022-11-09T21:40:29.795Z,10.98
2022-11-09T21:43:16.282Z,8.60
2022-11-09T21:46:01.687Z,13.88
2022-11-09T21:48:47.212Z,25.60
2022-11-09T21:51:34.735Z,32.03
2022-11-09T21:54:20.904Z,19.25
2022-11-09T21:57:06.480Z,22.00
2022-11-09T21:59:51.805Z,29.23
2022-11-09T22:02:37.489Z,12.43
2022-11-09T22:05:23.351Z,20.45
2022-11-09T22:08:08.905Z,22.77
2022-11-09T22:11:06.888Z,14.55
2022-11-09T22:14:11.234Z,7.18
2022-11-09T22:16:56.598Z,8.95
2022-11-09T22:20:00.531Z,6.20
2022-11-09T22:22:46.120Z,7.00
2022-11-09T22:25:31.584Z,9.35
2022-11-09T22:28:17.233Z,8.38
2022-11-09T22:31:08.428Z,6.47
2022-11-09T22:33:54.479Z,5.43
2022-11-09T22:36:39.924Z,6.25
2022-11-09T22:39:25.618Z,11.50
2022-11-09T22:42:11.156Z,8.70
2022-11-09T22:44:56.636Z,10.23
2022-11-09T22:47:42.222Z,6.05
2022-11-09T22:50:27.556Z,4.05
2022-11-09T22:53:13.202Z,12.57
2022-11-09T22:56:01.075Z,11.10
2022-11-09T22:58:46.988Z,6.13
2022-11-09T23:01:32.623Z,6.10
2022-11-09T23:04:18.149Z,5.65
2022-11-09T23:07:03.831Z,2.67
2022-11-09T23:09:49.370Z,4.55
2022-11-09T23:12:35.323Z,3.67
2022-11-09T23:15:21.198Z,6.78
2022-11-09T23:18:24.867Z,5.18
2022-11-09T23:21:10.931Z,5.35
2022-11-09T23:24:01.053Z,6.10
2022-11-09T23:26:46.667Z,6.97
2022-11-09T23:29:32.323Z,9.18
2022-11-09T23:32:17.923Z,7.97
2022-11-09T23:35:03.356Z,5.25
2022-11-09T23:38:01.011Z,7.18
2022-11-09T23:40:46.821Z,4.40
2022-11-09T23:43:32.320Z,9.60
2022-11-09T23:46:18.215Z,4.53
2022-11-09T23:49:03.680Z,3.33
2022-11-09T23:51:49.206Z,5.18
2022-11-09T23:54:34.405Z,8.40
2022-11-09T23:57:20.256Z,6.60
